Time;durP1;ratioP1;P1;durP2;ratioP2;P2;SDS_P1;SDS_P2;PMS_P1;PMS_P2;Temp;Humidity;BMP_temperature;BMP_pressure;BME280_temperature;BME280_humidity;BME280_pressure;Samples;Min_cycle;Max_cycle;Signal;HPM_P1;HPM_P2
2023/12/10 00:02:06;;;;;;;23.37;4.70;;;9.80;99.90;;;;;;5029791;28;20292;-61
2023/12/10 00:04:35;;;;;;;23.23;4.80;;;9.70;99.90;;;;;;5025720;28;20220;-59
2023/12/10 00:07:03;;;;;;;18.50;4.13;;;9.70;99.90;;;;;;5031241;28;20240;-59
2023/12/10 00:09:31;;;;;;;26.07;4.83;;;9.80;99.90;;;;;;5034996;28;20221;-60
2023/12/10 00:12:00;;;;;;;30.30;4.63;;;9.80;99.90;;;;;;5039752;28;20244;-60
2023/12/10 00:14:28;;;;;;;29.13;5.33;;;9.80;99.90;;;;;;5030747;28;20227;-60
2023/12/10 00:16:58;;;;;;;24.77;4.03;;;9.70;99.90;;;;;;5031255;28;20201;-59
2023/12/10 00:19:27;;;;;;;27.87;4.17;;;9.70;99.90;;;;;;5033540;28;20208;-60
2023/12/10 00:21:55;;;;;;;18.20;4.20;;;9.70;99.90;;;;;;5030012;28;20256;-60
2023/12/10 00:24:24;;;;;;;23.93;4.77;;;9.70;99.90;;;;;;5048566;28;20215;-60
2023/12/10 00:26:52;;;;;;;29.13;4.17;;;9.70;99.90;;;;;;5054344;28;20652;-59
2023/12/10 00:29:21;;;;;;;19.90;4.00;;;9.70;99.90;;;;;;5050357;28;20253;-60
2023/12/10 00:31:49;;;;;;;19.00;4.20;;;9.70;99.90;;;;;;5053992;28;20188;-60
2023/12/10 00:34:19;;;;;;;25.53;4.70;;;9.70;99.90;;;;;;5030381;28;20295;-60
2023/12/10 00:36:48;;;;;;;20.47;3.70;;;9.80;99.90;;;;;;5031327;28;20229;-60
2023/12/10 00:39:16;;;;;;;18.70;4.13;;;9.80;99.90;;;;;;5031658;28;20308;-60
2023/12/10 00:41:45;;;;;;;22.30;4.00;;;9.70;99.90;;;;;;5033812;28;20696;-60
2023/12/10 00:44:13;;;;;;;28.70;4.00;;;9.80;99.90;;;;;;5031322;28;20225;-60
2023/12/10 00:46:42;;;;;;;26.97;4.00;;;9.70;99.90;;;;;;5030012;28;20664;-60
2023/12/10 00:49:10;;;;;;;25.43;4.47;;;9.80;99.90;;;;;;5036906;28;20217;-60
2023/12/10 00:51:40;;;;;;;17.73;4.30;;;9.80;99.90;;;;;;5037904;28;20568;-60
2023/12/10 00:54:08;;;;;;;16.80;3.97;;;9.70;99.90;;;;;;5034480;28;20306;-60
2023/12/10 00:56:36;;;;;;;23.63;3.67;;;9.70;99.90;;;;;;5039574;28;20213;-60
2023/12/10 00:59:05;;;;;;;19.43;3.40;;;9.70;99.90;;;;;;5035236;28;20213;-60
2023/12/10 01:01:33;;;;;;;21.73;4.10;;;9.70;99.90;;;;;;5032792;28;20208;-59
2023/12/10 01:04:05;;;;;;;25.00;4.40;;;9.80;99.90;;;;;;5034213;28;20240;-59
2023/12/10 01:06:33;;;;;;;24.87;4.37;;;9.70;99.90;;;;;;5029174;28;20217;-59
2023/12/10 01:09:04;;;;;;;22.60;4.50;;;9.80;99.90;;;;;;5034953;28;20220;-60
2023/12/10 01:11:32;;;;;;;20.37;4.47;;;9.80;99.90;;;;;;5029997;28;20229;-57
2023/12/10 01:14:02;;;;;;;23.17;4.10;;;9.80;99.90;;;;;;5028476;28;20189;-59
2023/12/10 01:16:31;;;;;;;26.93;3.77;;;9.70;99.90;;;;;;5027956;28;20197;-59
2023/12/10 01:18:59;;;;;;;19.30;4.23;;;9.70;99.90;;;;;;5032385;28;20231;-60
2023/12/10 01:21:27;;;;;;;22.13;4.63;;;9.70;99.90;;;;;;5035088;28;20216;-60
2023/12/10 01:23:56;;;;;;;19.80;4.30;;;9.70;99.90;;;;;;5033500;28;20655;-60
2023/12/10 01:26:25;;;;;;;19.17;4.47;;;9.70;99.90;;;;;;5038937;28;20560;-60
2023/12/10 01:28:54;;;;;;;16.97;3.50;;;9.60;99.90;;;;;;5033052;28;20193;-60
2023/12/10 01:31:22;;;;;;;23.77;4.40;;;9.70;99.90;;;;;;5031095;28;20186;-60
2023/12/10 01:33:50;;;;;;;17.43;4.10;;;9.70;99.90;;;;;;5027350;28;20221;-60
2023/12/10 01:36:23;;;;;;;19.97;5.20;;;9.70;99.90;;;;;;5037893;28;20240;-59
2023/12/10 01:38:52;;;;;;;29.03;4.50;;;9.70;99.90;;;;;;5028374;28;20225;-60
2023/12/10 01:41:23;;;;;;;18.10;4.23;;;9.70;99.90;;;;;;5032826;28;20217;-60
2023/12/10 01:43:53;;;;;;;27.20;4.80;;;9.70;99.90;;;;;;5031719;28;20216;-59
2023/12/10 01:46:22;;;;;;;26.30;4.37;;;9.70;99.90;;;;;;5024196;28;20205;-60
2023/12/10 01:48:53;;;;;;;27.20;4.37;;;9.70;99.90;;;;;;5032127;28;20229;-61
2023/12/10 01:51:23;;;;;;;20.20;3.90;;;9.70;99.90;;;;;;5038971;28;20221;-59
2023/12/10 01:53:52;;;;;;;29.23;4.77;;;9.60;99.90;;;;;;5040710;28;20262;-60
2023/12/10 01:56:22;;;;;;;21.93;4.47;;;9.60;99.90;;;;;;5036977;28;20239;-60
2023/12/10 01:58:51;;;;;;;18.40;4.20;;;9.70;99.90;;;;;;5037013;28;20240;-60
2023/12/10 02:01:21;;;;;;;20.03;3.93;;;9.60;99.90;;;;;;5031954;28;20213;-60
2023/12/10 02:03:49;;;;;;;26.00;4.30;;;9.60;99.90;;;;;;5032802;28;20225;-60
2023/12/10 02:06:18;;;;;;;26.20;4.17;;;9.60;99.90;;;;;;5032440;28;20225;-60
2023/12/10 02:08:46;;;;;;;27.30;4.83;;;9.60;99.90;;;;;;5035039;28;20279;-60
2023/12/10 02:11:15;;;;;;;23.30;4.57;;;9.60;99.90;;;;;;5032108;28;20228;-60
2023/12/10 02:13:43;;;;;;;25.97;4.57;;;9.70;99.90;;;;;;5027771;28;20197;-60
2023/12/10 02:16:13;;;;;;;20.30;4.20;;;9.70;99.90;;;;;;5029792;28;20217;-60
2023/12/10 02:18:41;;;;;;;24.43;4.33;;;9.80;99.90;;;;;;5032439;28;20576;-60
2023/12/10 02:21:10;;;;;;;22.80;4.47;;;9.70;99.90;;;;;;5029114;28;20803;-60
2023/12/10 02:23:51;;;;;;;18.53;4.23;;;9.70;99.90;;;;;;5030662;28;20224;-59
2023/12/10 02:26:20;;;;;;;20.87;4.40;;;9.70;99.90;;;;;;5033841;28;20221;-59
2023/12/10 02:28:49;;;;;;;28.63;4.67;;;9.70;99.90;;;;;;5028774;28;20201;-61
2023/12/10 02:31:19;;;;;;;23.03;4.43;;;9.70;99.90;;;;;;5035491;28;20227;-60
2023/12/10 02:33:47;;;;;;;21.00;4.53;;;9.70;99.90;;;;;;5024681;28;20228;-60
2023/12/10 02:36:16;;;;;;;18.97;3.67;;;9.70;99.90;;;;;;5029279;28;20218;-60
2023/12/10 02:38:45;;;;;;;19.53;4.03;;;9.60;99.90;;;;;;5030531;28;21740;-60
2023/12/10 02:41:13;;;;;;;20.90;4.33;;;9.60;99.90;;;;;;5022738;28;20228;-60
2023/12/10 02:43:43;;;;;;;17.93;4.10;;;9.60;99.90;;;;;;5031137;28;20220;-60
2023/12/10 02:46:12;;;;;;;25.60;4.20;;;9.60;99.90;;;;;;5054065;28;20296;-60
2023/12/10 02:48:40;;;;;;;30.67;4.53;;;9.60;99.90;;;;;;5033212;28;20217;-60
2023/12/10 02:51:09;;;;;;;21.87;4.33;;;9.60;99.90;;;;;;5040893;28;20215;-60
2023/12/10 02:53:37;;;;;;;24.13;4.20;;;9.60;99.90;;;;;;5029978;28;20216;-60
2023/12/10 02:56:06;;;;;;;26.00;4.27;;;9.60;99.90;;;;;;5026849;28;20197;-60
2023/12/10 02:58:35;;;;;;;20.33;3.93;;;9.60;99.90;;;;;;5027984;28;20189;-60
2023/12/10 03:01:05;;;;;;;26.30;4.20;;;9.60;99.90;;;;;;5030877;28;20605;-60
2023/12/10 03:03:33;;;;;;;25.60;4.87;;;9.60;99.90;;;;;;5034728;28;20860;-60
2023/12/10 03:06:01;;;;;;;24.90;4.27;;;9.50;99.90;;;;;;5030390;28;20645;-60
2023/12/10 03:08:29;;;;;;;19.13;4.23;;;9.40;99.90;;;;;;5029001;28;20737;-61
2023/12/10 03:10:58;;;;;;;24.63;4.43;;;9.40;99.90;;;;;;5030182;28;20194;-59
2023/12/10 03:13:26;;;;;;;33.40;4.40;;;9.40;99.90;;;;;;5035676;28;20809;-60
2023/12/10 03:15:54;;;;;;;20.77;4.23;;;9.30;99.90;;;;;;5029999;28;20252;-60
2023/12/10 03:18:25;;;;;;;17.60;4.40;;;9.30;99.90;;;;;;5043070;28;20214;-60
2023/12/10 03:20:54;;;;;;;26.70;4.27;;;9.30;99.90;;;;;;5047864;28;20712;-60
2023/12/10 03:23:23;;;;;;;24.00;4.17;;;9.40;99.90;;;;;;5052041;28;20221;-60
2023/12/10 03:25:51;;;;;;;20.10;4.30;;;9.30;99.90;;;;;;5053972;28;20195;-57
2023/12/10 03:28:19;;;;;;;26.10;4.20;;;9.30;99.90;;;;;;5051599;28;20228;-60
2023/12/10 03:30:47;;;;;;;22.47;3.77;;;9.30;99.90;;;;;;5049097;28;20313;-60
2023/12/10 03:33:16;;;;;;;21.53;3.67;;;9.30;99.90;;;;;;5050341;28;20220;-61
2023/12/10 03:35:46;;;;;;;24.07;5.10;;;9.30;99.90;;;;;;5052828;28;20227;-60
2023/12/10 03:38:14;;;;;;;21.90;3.73;;;9.30;99.90;;;;;;5052636;28;20258;-60
2023/12/10 03:40:43;;;;;;;19.67;4.37;;;9.30;99.90;;;;;;5053894;28;20192;-59
2023/12/10 03:43:11;;;;;;;23.33;4.17;;;9.20;99.90;;;;;;5049690;28;20216;-59
2023/12/10 03:45:39;;;;;;;20.70;4.53;;;9.10;99.90;;;;;;5051109;28;20999;-60
2023/12/10 03:48:07;;;;;;;17.57;4.40;;;9.10;99.90;;;;;;5052318;28;20811;-59
2023/12/10 03:50:36;;;;;;;20.87;4.50;;;9.20;99.90;;;;;;5049708;28;20234;-60
2023/12/10 03:53:05;;;;;;;23.10;4.47;;;9.30;99.90;;;;;;5040365;28;20200;-59
2023/12/10 03:55:34;;;;;;;27.13;4.57;;;9.30;99.90;;;;;;5046578;28;20227;-60
2023/12/10 03:58:02;;;;;;;29.17;4.03;;;9.30;99.90;;;;;;5044500;28;20788;-59
2023/12/10 04:00:30;;;;;;;26.90;4.50;;;9.20;99.90;;;;;;5046410;28;20224;-59
2023/12/10 04:02:59;;;;;;;23.37;4.03;;;9.20;99.90;;;;;;5051176;28;20220;-59
2023/12/10 04:05:27;;;;;;;29.03;4.00;;;9.20;99.90;;;;;;5051812;28;20231;-60
2023/12/10 04:07:55;;;;;;;28.63;4.07;;;9.20;99.90;;;;;;5050640;28;20294;-60
2023/12/10 04:10:25;;;;;;;23.30;3.87;;;9.20;99.90;;;;;;5057012;28;20193;-59
2023/12/10 04:12:54;;;;;;;19.97;3.60;;;9.20;99.90;;;;;;5050880;28;20795;-60
2023/12/10 04:15:22;;;;;;;15.47;4.07;;;9.20;99.90;;;;;;5052311;28;20652;-59
2023/12/10 04:17:50;;;;;;;25.40;3.97;;;9.20;99.90;;;;;;5046606;28;20224;-57
2023/12/10 04:20:19;;;;;;;23.97;4.40;;;9.20;99.90;;;;;;5050570;28;20302;-58
2023/12/10 04:22:47;;;;;;;28.63;4.67;;;9.10;99.90;;;;;;5050455;28;20224;-59
2023/12/10 04:25:15;;;;;;;19.77;4.10;;;9.10;99.90;;;;;;5054105;28;20222;-59
2023/12/10 04:27:45;;;;;;;26.13;4.13;;;9.20;99.90;;;;;;5046802;28;20226;-59
2023/12/10 04:30:14;;;;;;;24.23;4.40;;;9.20;99.90;;;;;;5053660;28;20232;-59
2023/12/10 04:32:42;;;;;;;23.17;3.60;;;9.20;99.90;;;;;;5054491;28;20270;-59
2023/12/10 04:35:11;;;;;;;23.90;4.10;;;9.20;99.90;;;;;;5049592;28;20558;-59
2023/12/10 04:37:39;;;;;;;25.07;4.67;;;9.10;99.90;;;;;;5049550;28;20203;-59
2023/12/10 04:40:11;;;;;;;24.67;4.57;;;9.10;99.90;;;;;;5048016;28;20228;-60
2023/12/10 04:42:40;;;;;;;29.07;5.17;;;9.10;99.90;;;;;;5057685;28;20219;-59
2023/12/10 04:45:10;;;;;;;28.33;5.23;;;9.00;99.90;;;;;;5048832;28;20231;-60
2023/12/10 04:47:39;;;;;;;26.53;4.10;;;9.00;99.90;;;;;;5051619;28;20216;-60
2023/12/10 04:50:08;;;;;;;22.47;3.90;;;9.10;99.90;;;;;;5053491;28;20197;-60
2023/12/10 04:52:36;;;;;;;24.00;4.30;;;9.10;99.90;;;;;;5051543;28;20252;-60
2023/12/10 04:55:05;;;;;;;24.37;4.03;;;9.00;99.90;;;;;;5051775;28;20215;-61
2023/12/10 04:57:33;;;;;;;24.13;4.97;;;9.00;99.90;;;;;;5050867;28;21106;-60
2023/12/10 05:00:03;;;;;;;27.23;4.47;;;9.10;99.90;;;;;;5051692;28;20271;-60
2023/12/10 05:02:33;;;;;;;18.57;4.23;;;9.10;99.90;;;;;;5043564;28;20221;-60
2023/12/10 05:05:02;;;;;;;32.83;4.77;;;9.00;99.90;;;;;;5048551;28;20212;-60
2023/12/10 05:07:30;;;;;;;26.97;4.77;;;8.90;99.90;;;;;;5055025;28;20394;-60
2023/12/10 05:09:59;;;;;;;22.97;4.40;;;9.00;99.90;;;;;;5057221;28;21493;-60
2023/12/10 05:12:27;;;;;;;29.53;4.73;;;8.90;99.90;;;;;;5051535;28;20736;-60
2023/12/10 05:14:56;;;;;;;25.03;4.43;;;8.90;99.90;;;;;;5055011;28;20719;-60
2023/12/10 05:17:25;;;;;;;17.93;4.30;;;8.90;99.90;;;;;;5042528;28;20224;-60
2023/12/10 05:19:55;;;;;;;28.37;4.43;;;8.90;99.90;;;;;;5047924;28;20184;-57
2023/12/10 05:22:24;;;;;;;27.33;4.97;;;8.90;99.90;;;;;;5049731;28;20224;-61
2023/12/10 05:24:54;;;;;;;19.70;3.80;;;8.90;99.90;;;;;;5058812;28;20220;-60
2023/12/10 05:27:23;;;;;;;29.90;4.43;;;8.90;99.90;;;;;;5053074;28;20221;-60
2023/12/10 05:29:51;;;;;;;26.20;4.67;;;9.00;99.90;;;;;;5053413;28;20231;-59
2023/12/10 05:32:20;;;;;;;18.83;4.27;;;9.00;99.90;;;;;;5053096;28;20232;-60
2023/12/10 05:34:48;;;;;;;28.40;4.50;;;9.00;99.90;;;;;;5059506;28;20222;-59
2023/12/10 05:37:20;;;;;;;28.50;4.97;;;9.00;99.90;;;;;;5035466;28;20218;-59
2023/12/10 05:39:48;;;;;;;30.63;5.03;;;9.00;99.90;;;;;;5030475;28;20220;-60
2023/12/10 05:42:16;;;;;;;26.23;3.80;;;9.00;99.90;;;;;;5031782;28;20250;-60
2023/12/10 05:44:45;;;;;;;14.43;3.83;;;8.90;99.90;;;;;;5033067;28;20307;-60
2023/12/10 05:47:13;;;;;;;24.77;4.27;;;8.90;99.90;;;;;;5029486;28;20224;-60
2023/12/10 05:49:41;;;;;;;32.83;4.87;;;8.90;99.90;;;;;;5033749;28;20200;-60
2023/12/10 05:52:10;;;;;;;25.00;4.20;;;8.80;99.90;;;;;;5033280;28;20267;-60
2023/12/10 05:54:39;;;;;;;30.30;4.20;;;8.80;99.90;;;;;;5039567;28;20567;-60
2023/12/10 05:57:08;;;;;;;17.03;3.80;;;8.70;99.90;;;;;;5036814;28;20216;-60
2023/12/10 05:59:36;;;;;;;18.47;4.17;;;8.70;99.90;;;;;;5028680;28;20255;-60
2023/12/10 06:02:05;;;;;;;17.47;3.43;;;8.70;99.90;;;;;;5023769;28;20193;-60
2023/12/10 06:04:33;;;;;;;26.90;4.40;;;8.70;99.90;;;;;;5027872;28;20194;-60
2023/12/10 06:07:02;;;;;;;28.77;4.93;;;8.70;99.90;;;;;;5028994;28;20311;-59
2023/12/10 06:09:30;;;;;;;21.37;4.47;;;8.70;99.90;;;;;;5029963;28;20692;-60
2023/12/10 06:12:00;;;;;;;16.93;4.33;;;8.70;99.90;;;;;;5031374;28;20255;-60
2023/12/10 06:14:28;;;;;;;27.83;4.03;;;8.70;99.90;;;;;;5027750;28;20221;-60
2023/12/10 06:16:56;;;;;;;23.87;3.70;;;8.70;99.90;;;;;;5033461;28;20666;-59
2023/12/10 06:19:25;;;;;;;20.30;4.53;;;8.70;99.90;;;;;;5030537;28;20193;-60
2023/12/10 06:21:53;;;;;;;27.53;4.47;;;8.70;99.90;;;;;;5033139;28;20221;-59
2023/12/10 06:24:21;;;;;;;20.17;3.73;;;8.70;99.90;;;;;;5033577;28;20229;-59
2023/12/10 06:26:50;;;;;;;21.80;4.20;;;8.70;99.90;;;;;;5021306;28;20308;-60
2023/12/10 06:29:19;;;;;;;21.03;4.23;;;8.70;99.90;;;;;;5029214;28;20232;-60
2023/12/10 06:31:48;;;;;;;26.53;4.13;;;8.70;99.90;;;;;;5038217;28;20246;-60
2023/12/10 06:34:19;;;;;;;24.13;4.43;;;8.60;99.90;;;;;;5033038;28;20247;-60
2023/12/10 06:36:47;;;;;;;26.97;4.07;;;8.60;99.90;;;;;;5034127;28;20679;-60
2023/12/10 06:39:16;;;;;;;21.90;3.97;;;8.60;99.90;;;;;;5034142;28;20268;-60
2023/12/10 06:41:44;;;;;;;26.20;4.57;;;8.60;99.90;;;;;;5037016;28;20229;-60
2023/12/10 06:44:15;;;;;;;28.93;5.03;;;8.50;99.90;;;;;;5038437;28;20701;-60
2023/12/10 06:46:44;;;;;;;21.33;4.80;;;8.60;99.90;;;;;;5031718;28;20204;-59
2023/12/10 06:49:13;;;;;;;25.73;4.33;;;8.50;99.90;;;;;;5027829;28;20234;-60
2023/12/10 06:51:41;;;;;;;25.47;4.03;;;8.50;99.90;;;;;;5029803;28;20244;-60
2023/12/10 06:54:10;;;;;;;21.20;4.00;;;8.50;99.90;;;;;;5029719;28;20218;-60
2023/12/10 06:56:39;;;;;;;29.93;4.33;;;8.40;99.90;;;;;;5028932;28;20217;-59
2023/12/10 06:59:08;;;;;;;23.10;4.03;;;8.40;99.90;;;;;;5030009;28;20285;-60
2023/12/10 07:01:38;;;;;;;20.43;4.63;;;8.40;99.90;;;;;;5034047;28;20691;-60
2023/12/10 07:04:09;;;;;;;22.83;4.33;;;8.30;99.90;;;;;;5029243;28;20278;-60
2023/12/10 07:06:37;;;;;;;24.40;4.47;;;8.30;99.90;;;;;;5034670;28;20213;-59
2023/12/10 07:09:06;;;;;;;30.30;4.37;;;8.30;99.90;;;;;;5028596;28;20275;-60
2023/12/10 07:11:35;;;;;;;27.67;4.70;;;8.20;99.90;;;;;;5031366;28;20742;-60
2023/12/10 07:14:03;;;;;;;27.53;4.70;;;8.30;99.90;;;;;;5037250;28;20194;-60
2023/12/10 07:16:31;;;;;;;32.37;4.50;;;8.30;99.90;;;;;;5032843;28;20651;-60
2023/12/10 07:18:59;;;;;;;20.57;4.67;;;8.40;99.90;;;;;;5036886;28;20228;-60
2023/12/10 07:21:29;;;;;;;33.80;4.40;;;8.40;99.90;;;;;;5028058;28;20304;-60
2023/12/10 07:23:58;;;;;;;25.03;4.57;;;8.50;99.90;;;;;;5028780;28;20315;-60
2023/12/10 07:26:27;;;;;;;27.63;4.77;;;8.50;99.90;;;;;;5043654;28;20786;-59
2023/12/10 07:28:55;;;;;;;32.40;5.20;;;8.50;99.90;;;;;;5025119;28;20204;-60
2023/12/10 07:31:23;;;;;;;29.10;4.17;;;8.50;99.90;;;;;;5028885;28;20217;-59
2023/12/10 07:33:51;;;;;;;24.63;4.77;;;8.50;99.90;;;;;;5029877;28;20328;-59
2023/12/10 07:36:20;;;;;;;33.20;5.50;;;8.50;99.90;;;;;;5026973;28;20313;-60
2023/12/10 07:38:51;;;;;;;24.60;3.70;;;8.60;99.90;;;;;;5012346;28;20220;-60
2023/12/10 07:41:19;;;;;;;26.27;5.50;;;8.60;99.90;;;;;;5024270;28;20308;-59
2023/12/10 07:43:48;;;;;;;23.90;3.80;;;8.60;99.90;;;;;;5035123;28;20193;-59
2023/12/10 07:46:17;;;;;;;22.93;4.00;;;8.60;99.90;;;;;;5032115;28;20624;-60
2023/12/10 07:48:45;;;;;;;23.20;3.87;;;8.60;99.90;;;;;;5026502;28;20225;-60
2023/12/10 07:51:14;;;;;;;22.73;4.07;;;8.60;99.90;;;;;;5034162;28;20316;-59
2023/12/10 07:53:42;;;;;;;25.10;4.83;;;8.50;99.90;;;;;;5039534;28;20592;-60
2023/12/10 07:56:12;;;;;;;29.93;4.97;;;8.50;99.90;;;;;;5032412;28;20698;-60
2023/12/10 07:58:40;;;;;;;23.60;4.03;;;8.50;99.90;;;;;;5029156;28;20194;-60
2023/12/10 08:01:10;;;;;;;25.37;4.63;;;8.50;99.90;;;;;;5029818;28;20212;-60
2023/12/10 08:03:38;;;;;;;22.33;4.10;;;8.50;99.90;;;;;;5024075;28;20239;-60
2023/12/10 08:06:08;;;;;;;27.27;4.50;;;8.60;99.90;;;;;;5028712;28;20889;-61
2023/12/10 08:08:36;;;;;;;21.10;4.23;;;8.60;99.90;;;;;;5038123;28;20224;-60
2023/12/10 08:11:05;;;;;;;24.83;4.43;;;8.60;99.90;;;;;;5028208;28;20208;-59
2023/12/10 08:13:36;;;;;;;30.63;5.27;;;8.70;99.90;;;;;;5035043;28;20644;-60
2023/12/10 08:16:05;;;;;;;32.40;4.83;;;8.70;99.90;;;;;;5028645;28;20232;-60
2023/12/10 08:18:33;;;;;;;24.53;4.43;;;8.70;99.90;;;;;;5029364;28;20568;-60
2023/12/10 08:21:01;;;;;;;26.97;4.17;;;8.60;99.90;;;;;;5023567;28;20625;-57
2023/12/10 08:23:30;;;;;;;26.10;4.77;;;8.70;99.90;;;;;;5026519;28;20224;-60
2023/12/10 08:25:58;;;;;;;31.37;4.87;;;8.70;99.90;;;;;;5025510;28;20213;-61
2023/12/10 08:28:26;;;;;;;23.43;4.70;;;8.70;99.90;;;;;;5028724;28;20197;-60
2023/12/10 08:30:56;;;;;;;29.43;5.10;;;8.70;99.90;;;;;;5026856;28;20316;-60
2023/12/10 08:33:25;;;;;;;24.87;4.87;;;8.80;99.90;;;;;;5021177;28;20251;-60
2023/12/10 08:35:53;;;;;;;28.43;5.23;;;8.80;99.90;;;;;;5015307;28;20232;-60
2023/12/10 08:38:22;;;;;;;33.60;5.13;;;8.90;99.90;;;;;;5026113;28;20227;-59
2023/12/10 08:40:50;;;;;;;28.57;4.87;;;9.00;99.90;;;;;;5033324;28;20190;-60
2023/12/10 08:43:20;;;;;;;30.60;5.30;;;9.10;99.90;;;;;;5048778;28;20212;-60
2023/12/10 08:45:48;;;;;;;37.13;5.23;;;9.10;99.90;;;;;;5054125;28;20324;-60
2023/12/10 08:48:18;;;;;;;28.70;4.97;;;9.10;99.90;;;;;;5048955;28;20220;-60
2023/12/10 08:50:47;;;;;;;27.17;4.83;;;9.20;99.90;;;;;;5048911;28;20228;-60
2023/12/10 08:53:15;;;;;;;31.47;5.73;;;9.30;99.90;;;;;;5055250;28;20650;-60
2023/12/10 08:55:45;;;;;;;37.47;5.53;;;9.30;99.90;;;;;;5052059;28;20196;-60
2023/12/10 08:58:13;;;;;;;39.13;5.37;;;9.30;99.90;;;;;;5055233;28;20252;-60
2023/12/10 09:00:41;;;;;;;27.47;4.80;;;9.40;99.90;;;;;;5048968;28;20216;-60
2023/12/10 09:03:12;;;;;;;27.07;4.83;;;9.40;99.90;;;;;;5054135;28;20228;-60
2023/12/10 09:05:42;;;;;;;36.63;5.40;;;9.40;99.90;;;;;;5046238;28;20220;-60
2023/12/10 09:08:10;;;;;;;28.40;5.00;;;9.50;99.90;;;;;;5048028;28;20576;-59
2023/12/10 09:10:38;;;;;;;36.77;5.80;;;9.50;99.90;;;;;;5052713;28;20219;-60
2023/12/10 09:13:07;;;;;;;30.77;4.77;;;9.60;99.90;;;;;;5053229;28;20701;-59
2023/12/10 09:15:35;;;;;;;35.53;6.13;;;9.80;99.90;;;;;;5053808;28;20274;-60
2023/12/10 09:18:04;;;;;;;34.90;5.27;;;9.80;99.90;;;;;;5051245;28;20228;-59
2023/12/10 09:20:33;;;;;;;38.77;7.17;;;9.90;99.90;;;;;;5039486;28;20224;-58
2023/12/10 09:23:02;;;;;;;36.77;5.70;;;10.00;99.90;;;;;;5048857;28;20232;-57
2023/12/10 09:25:31;;;;;;;30.77;5.67;;;10.00;99.90;;;;;;5047579;28;20543;-59
2023/12/10 09:27:59;;;;;;;31.63;5.23;;;10.00;99.90;;;;;;5052943;28;20220;-58
2023/12/10 09:30:27;;;;;;;35.90;5.80;;;10.10;99.90;;;;;;5048143;28;20235;-58
2023/12/10 09:32:56;;;;;;;32.23;5.43;;;10.10;99.90;;;;;;5045674;28;20294;-59
2023/12/10 09:35:24;;;;;;;38.13;5.67;;;10.20;99.90;;;;;;5046770;28;20231;-59
2023/12/10 09:37:53;;;;;;;28.20;5.00;;;10.20;99.90;;;;;;5051754;28;20217;-57
2023/12/10 09:40:22;;;;;;;26.73;5.33;;;10.20;99.90;;;;;;5052217;28;20231;-58
2023/12/10 09:42:51;;;;;;;31.00;5.93;;;10.20;99.90;;;;;;5050853;28;20216;-58
2023/12/10 09:45:19;;;;;;;34.43;5.57;;;10.20;99.90;;;;;;5056033;28;20250;-59
2023/12/10 09:47:48;;;;;;;37.93;6.30;;;10.30;99.90;;;;;;5050457;28;20319;-59
2023/12/10 09:50:17;;;;;;;32.03;5.23;;;10.40;99.90;;;;;;5050160;28;20339;-59
2023/12/10 09:52:45;;;;;;;32.00;6.03;;;10.50;99.90;;;;;;5049596;28;20192;-58
2023/12/10 09:55:13;;;;;;;38.30;5.90;;;10.60;99.90;;;;;;5054737;28;20226;-58
2023/12/10 09:57:43;;;;;;;32.03;5.40;;;10.60;99.90;;;;;;5043063;28;20217;-58
2023/12/10 10:00:12;;;;;;;36.47;6.13;;;10.70;99.90;;;;;;5046988;28;20671;-58
2023/12/10 10:02:41;;;;;;;32.83;5.87;;;10.80;99.90;;;;;;5057031;28;20696;-58
2023/12/10 10:05:10;;;;;;;37.90;5.10;;;10.90;99.90;;;;;;5052068;28;20196;-58
2023/12/10 10:07:38;;;;;;;34.77;5.93;;;10.90;99.90;;;;;;5052686;28;20212;-58
2023/12/10 10:10:11;;;;;;;32.40;5.93;;;11.00;99.90;;;;;;5048432;28;20229;-58
2023/12/10 10:12:40;;;;;;;35.97;6.00;;;11.00;99.90;;;;;;5049896;28;20231;-58
2023/12/10 10:15:10;;;;;;;42.10;6.43;;;11.10;99.90;;;;;;5051496;28;20960;-59
2023/12/10 10:17:44;;;;;;;32.30;5.50;;;11.10;99.90;;;;;;5039263;28;20328;-59
2023/12/10 10:20:12;;;;;;;41.40;7.10;;;11.10;99.90;;;;;;5044697;28;20235;-58
2023/12/10 10:22:41;;;;;;;33.90;5.67;;;11.10;99.90;;;;;;5044323;28;20728;-58
2023/12/10 10:25:10;;;;;;;33.53;5.77;;;11.00;99.90;;;;;;5051978;28;20224;-59
2023/12/10 10:27:38;;;;;;;38.57;6.40;;;11.10;99.90;;;;;;5048550;28;20229;-58
2023/12/10 10:30:10;;;;;;;48.13;6.80;;;11.30;99.90;;;;;;5045497;28;20244;-58
2023/12/10 10:32:40;;;;;;;40.07;6.13;;;11.20;99.90;;;;;;5047568;28;20232;-59
2023/12/10 10:35:11;;;;;;;59.73;6.50;;;11.20;99.90;;;;;;5049804;28;20192;-59
2023/12/10 10:37:39;;;;;;;42.17;6.53;;;11.20;99.90;;;;;;5047674;28;20299;-58
2023/12/10 10:40:08;;;;;;;33.90;5.93;;;11.30;99.90;;;;;;5048962;28;20232;-59
2023/12/10 10:42:37;;;;;;;43.93;6.57;;;11.20;99.90;;;;;;5054276;28;20227;-59
2023/12/10 10:45:07;;;;;;;38.10;6.47;;;11.10;99.90;;;;;;5049875;28;20250;-59
2023/12/10 10:47:38;;;;;;;49.33;7.03;;;11.10;99.90;;;;;;5045974;28;20255;-59
2023/12/10 10:50:07;;;;;;;47.83;7.83;;;11.20;99.90;;;;;;5051862;28;20195;-59
2023/12/10 10:52:53;;;;;;;38.50;6.73;;;11.10;99.90;;;;;;5047296;28;20196;-57
2023/12/10 10:55:22;;;;;;;36.67;6.73;;;11.10;99.90;;;;;;5043694;28;20211;-59
2023/12/10 10:57:51;;;;;;;38.50;7.13;;;11.00;99.90;;;;;;5048039;28;20216;-59
2023/12/10 11:00:43;;;;;;;38.33;6.60;;;11.00;99.90;;;;;;5054290;28;20212;-59
2023/12/10 11:03:16;;;;;;;40.87;5.77;;;11.20;99.90;;;;;;5040562;28;20278;-59
2023/12/10 11:05:45;;;;;;;40.20;6.47;;;11.30;99.90;;;;;;5051140;28;20228;-59
2023/12/10 11:08:13;;;;;;;32.40;6.20;;;11.40;99.90;;;;;;5049180;28;20220;-59
2023/12/10 11:10:45;;;;;;;39.93;6.97;;;11.40;99.90;;;;;;5049417;28;20287;-59
2023/12/10 11:13:13;;;;;;;42.73;6.13;;;11.30;99.90;;;;;;5051120;28;20274;-58
2023/12/10 11:15:41;;;;;;;37.70;6.73;;;11.30;99.90;;;;;;5032726;28;20256;-58
2023/12/10 11:18:11;;;;;;;37.23;6.67;;;11.30;99.90;;;;;;5030622;28;20304;-59
2023/12/10 11:20:43;;;;;;;36.77;6.40;;;11.30;99.90;;;;;;5027135;28;20316;-58
2023/12/10 11:23:13;;;;;;;38.33;6.17;;;11.30;99.90;;;;;;5030977;28;20719;-59
2023/12/10 11:25:42;;;;;;;42.87;7.10;;;11.30;99.90;;;;;;5028882;28;20211;-59
2023/12/10 11:28:12;;;;;;;30.10;5.83;;;11.30;99.90;;;;;;5029109;28;20217;-59
2023/12/10 11:30:41;;;;;;;39.53;7.00;;;11.20;99.90;;;;;;5031511;28;20290;-59
2023/12/10 11:33:10;;;;;;;33.33;6.13;;;11.30;99.90;;;;;;5031895;28;20217;-59
2023/12/10 11:35:41;;;;;;;33.13;6.00;;;11.30;99.90;;;;;;5034701;28;20217;-60
2023/12/10 11:38:09;;;;;;;32.17;5.93;;;11.30;99.90;;;;;;5033719;28;20269;-59
2023/12/10 11:40:38;;;;;;;31.87;5.97;;;11.30;99.90;;;;;;5029619;28;20596;-59
2023/12/10 11:43:09;;;;;;;31.57;6.00;;;11.30;99.90;;;;;;5034983;28;20228;-59
2023/12/10 11:45:38;;;;;;;31.07;5.73;;;11.50;99.90;;;;;;5027207;28;20252;-59
2023/12/10 11:48:06;;;;;;;33.73;6.03;;;11.50;99.90;;;;;;5033057;28;20221;-59
2023/12/10 11:50:36;;;;;;;32.90;6.20;;;11.50;99.90;;;;;;5031741;28;20221;-58
2023/12/10 11:53:07;;;;;;;35.57;5.43;;;11.50;99.90;;;;;;5028947;28;20222;-58
2023/12/10 11:55:35;;;;;;;42.07;6.30;;;11.50;99.90;;;;;;5033066;28;20607;-58
2023/12/10 11:58:03;;;;;;;29.97;5.97;;;11.40;99.90;;;;;;5034787;28;20591;-59
2023/12/10 12:00:32;;;;;;;37.63;6.00;;;11.40;99.90;;;;;;5031631;28;20643;-59
2023/12/10 12:03:05;;;;;;;26.63;5.50;;;11.30;99.90;;;;;;5030042;28;20297;-59
2023/12/10 12:05:34;;;;;;;37.17;5.87;;;11.30;99.90;;;;;;5031778;28;20221;-59
2023/12/10 12:08:02;;;;;;;39.47;6.57;;;11.20;99.90;;;;;;5029081;28;20267;-59
2023/12/10 12:10:38;;;;;;;36.00;6.17;;;11.20;99.90;;;;;;5034775;28;20607;-59
2023/12/10 12:13:06;;;;;;;38.70;6.23;;;11.00;99.90;;;;;;5035367;28;20217;-59
2023/12/10 12:15:34;;;;;;;39.47;6.57;;;11.00;99.90;;;;;;5034775;28;20224;-59
2023/12/10 12:18:04;;;;;;;33.10;5.97;;;10.90;99.90;;;;;;5033700;28;20664;-58
2023/12/10 12:20:33;;;;;;;38.07;5.97;;;10.90;99.90;;;;;;5033579;28;20296;-58
2023/12/10 12:23:01;;;;;;;35.97;5.60;;;10.90;99.90;;;;;;5032616;28;20239;-58
2023/12/10 12:25:34;;;;;;;32.90;4.97;;;10.90;99.90;;;;;;5032703;28;20668;-58
2023/12/10 12:28:05;;;;;;;24.17;4.90;;;10.80;99.90;;;;;;5039674;28;20228;-58
2023/12/10 12:30:34;;;;;;;23.60;4.53;;;10.80;99.90;;;;;;5031959;28;20247;-59
2023/12/10 12:33:02;;;;;;;25.20;4.97;;;10.80;99.90;;;;;;5031678;28;20237;-58
2023/12/10 12:35:31;;;;;;;31.37;4.97;;;10.80;99.90;;;;;;5020544;28;20221;-58
2023/12/10 12:37:59;;;;;;;33.33;5.37;;;10.70;99.90;;;;;;5037259;28;20248;-59
2023/12/10 12:40:28;;;;;;;30.70;5.33;;;10.70;99.90;;;;;;5051087;28;20193;-59
2023/12/10 12:42:56;;;;;;;30.60;5.27;;;10.60;99.90;;;;;;5050429;28;20220;-58
2023/12/10 12:45:26;;;;;;;23.37;4.57;;;10.60;99.90;;;;;;5040616;28;20216;-58
2023/12/10 12:47:55;;;;;;;34.03;6.00;;;10.50;99.90;;;;;;5033972;28;20217;-59
2023/12/10 12:50:23;;;;;;;26.17;5.10;;;10.60;99.90;;;;;;5027520;28;20232;-58
2023/12/10 12:52:51;;;;;;;30.80;4.83;;;10.60;99.90;;;;;;5031441;28;20280;-55